createdAt,value
2019-04-22T00:00:16.707Z,18.00
2019-04-22T00:05:41.466Z,16.93
2019-04-22T00:08:16.932Z,15.78
2019-04-22T00:10:47.160Z,16.97
2019-04-22T00:13:26.229Z,15.90
2019-04-22T00:15:53.847Z,16.15
2019-04-22T00:18:30.451Z,16.45
2019-04-22T00:20:58.336Z,15.95
2019-04-22T00:24:12.428Z,15.60
2019-04-22T00:34:35.917Z,16.07
2019-04-22T00:37:10.495Z,16.77
2019-04-22T00:39:44.490Z,16.87
2019-04-22T00:42:16.447Z,16.85
2019-04-22T00:44:49.421Z,16.65
2019-04-22T00:47:23.271Z,16.75
2019-04-22T00:52:22.338Z,16.45
2019-04-22T00:54:59.494Z,16.30
2019-04-22T00:57:29.617Z,15.28
2019-04-22T00:59:58.328Z,15.15
2019-04-22T01:02:39.664Z,15.83
2019-04-22T01:05:07.940Z,16.23
2019-04-22T01:07:38.853Z,16.70
2019-04-22T01:10:11.637Z,16.48
2019-04-22T01:12:44.010Z,15.68
2019-04-22T01:15:21.193Z,15.72
2019-04-22T01:18:03.625Z,15.90
2019-04-22T01:23:11.248Z,16.82
2019-04-22T01:25:42.147Z,16.45
2019-04-22T01:28:10.237Z,15.13
2019-04-22T01:30:35.033Z,15.58
2019-04-22T01:33:05.673Z,14.87
2019-04-22T01:35:49.375Z,14.53
2019-04-22T01:38:22.513Z,15.72
2019-04-22T01:41:05.317Z,15.45
2019-04-22T01:43:40.944Z,15.65
2019-04-22T01:46:08.447Z,15.65
2019-04-22T01:49:27.641Z,15.83
2019-04-22T01:52:05.184Z,14.65
2019-04-22T01:54:46.684Z,14.38
2019-04-22T01:57:03.632Z,15.25
2019-04-22T01:59:46.038Z,14.28
2019-04-22T02:02:30.501Z,14.73
2019-04-22T02:05:04.576Z,13.55
2019-04-22T02:07:34.152Z,13.08
2019-04-22T02:10:02.254Z,12.88
2019-04-22T02:12:43.146Z,13.03
2019-04-22T02:15:12.023Z,13.58
2019-04-22T02:17:49.211Z,13.85
2019-04-22T02:20:32.939Z,14.05
2019-04-22T02:34:00.793Z,15.63
2019-04-22T02:39:07.517Z,14.75
2019-04-22T02:41:35.068Z,15.48
2019-04-22T02:44:12.171Z,15.65
2019-04-22T02:51:32.931Z,14.87
2019-04-22T02:54:32.010Z,14.03
2019-04-22T02:56:45.566Z,14.33
2019-04-22T02:59:28.375Z,13.40
2019-04-22T03:02:10.331Z,14.40
2019-04-22T03:04:49.158Z,14.13
2019-04-22T03:07:10.830Z,14.30
2019-04-22T03:09:51.038Z,13.75
2019-04-22T03:14:48.535Z,12.90
2019-04-22T03:17:43.645Z,13.58
2019-04-22T03:22:47.638Z,11.80
2019-04-22T03:25:51.416Z,12.78
2019-04-22T03:27:48.350Z,12.37
2019-04-22T03:37:55.932Z,12.07
2019-04-22T03:40:54.935Z,12.13
2019-04-22T03:43:14.123Z,12.15
2019-04-22T03:45:34.023Z,11.60
2019-04-22T03:48:09.318Z,11.18
2019-04-22T03:50:51.860Z,10.90
2019-04-22T03:54:19.111Z,10.82
2019-04-22T03:57:46.039Z,12.20
2019-04-22T04:01:29.610Z,11.90
2019-04-22T04:03:49.202Z,11.43
2019-04-22T04:06:29.704Z,11.33
2019-04-22T04:11:32.208Z,11.25
2019-04-22T04:14:22.845Z,11.65
2019-04-22T04:16:39.268Z,11.40
2019-04-22T04:19:13.086Z,10.93
2019-04-22T04:21:42.016Z,11.10
2019-04-22T04:26:55.594Z,11.35
2019-04-22T04:31:55.205Z,11.28
2019-04-22T04:34:30.890Z,10.70
2019-04-22T04:37:17.871Z,10.75
2019-04-22T04:39:26.794Z,9.90
2019-04-22T04:42:05.112Z,9.90
2019-04-22T04:47:13.636Z,10.40
2019-04-22T04:49:43.879Z,10.98
2019-04-22T04:52:10.455Z,9.75
2019-04-22T04:54:51.911Z,10.55
2019-04-22T04:57:14.584Z,10.10
2019-04-22T05:00:12.606Z,10.60
2019-04-22T05:02:19.861Z,10.13
2019-04-22T05:09:59.217Z,10.13
2019-04-22T05:13:14.130Z,9.83
2019-04-22T05:20:13.465Z,10.05
2019-04-22T05:22:39.975Z,9.88
2019-04-22T05:25:11.721Z,9.23
2019-04-22T05:35:23.088Z,8.98
2019-04-22T05:37:58.037Z,9.35
2019-04-22T05:40:26.184Z,9.40
2019-04-22T05:42:55.981Z,9.28
2019-04-22T05:45:25.395Z,9.33
2019-04-22T05:47:59.497Z,8.90
2019-04-22T05:50:26.924Z,8.85
2019-04-22T05:53:03.389Z,9.30
2019-04-22T05:55:43.900Z,9.78
2019-04-22T05:58:08.354Z,9.13
2019-04-22T06:03:16.480Z,9.55
2019-04-22T06:06:12.704Z,8.20
2019-04-22T06:08:42.966Z,8.80
2019-04-22T06:11:22.769Z,8.55
2019-04-22T06:13:50.212Z,8.83
2019-04-22T06:16:29.127Z,9.00
2019-04-22T06:19:02.806Z,8.93
2019-04-22T06:21:35.797Z,8.40
2019-04-22T06:24:14.043Z,8.25
2019-04-22T06:26:46.255Z,8.50
2019-04-22T06:30:04.331Z,8.90
2019-04-22T06:32:32.540Z,7.75
2019-04-22T06:35:16.689Z,8.65
2019-04-22T06:37:46.408Z,9.20
2019-04-22T06:40:16.397Z,8.85
2019-04-22T06:42:52.579Z,8.30
2019-04-22T06:45:19.280Z,8.80
2019-04-22T06:48:04.161Z,8.53
2019-04-22T06:50:23.065Z,7.95
2019-04-22T06:52:57.698Z,7.83
2019-04-22T06:55:40.186Z,8.60
2019-04-22T06:58:02.419Z,8.80
2019-04-22T07:00:38.099Z,9.00
2019-04-22T07:05:57.125Z,8.65
2019-04-22T07:08:59.244Z,8.33
2019-04-22T07:10:56.291Z,7.87
2019-04-22T07:13:34.410Z,8.03
2019-04-22T07:16:04.034Z,7.33
2019-04-22T07:21:06.514Z,8.38
2019-04-22T07:24:17.882Z,8.30
2019-04-22T07:26:18.774Z,7.60
2019-04-22T07:28:47.608Z,7.60
2019-04-22T07:31:20.821Z,8.03
2019-04-22T07:33:51.857Z,7.80
2019-04-22T07:38:56.554Z,7.80
2019-04-22T07:41:34.662Z,8.45
2019-04-22T07:44:13.175Z,7.75
2019-04-22T07:46:43.061Z,8.23
2019-04-22T07:49:33.846Z,8.63
2019-04-22T07:51:43.907Z,8.75
2019-04-22T07:57:08.705Z,8.80
2019-04-22T07:59:34.783Z,8.85
2019-04-22T08:02:04.264Z,8.60
2019-04-22T08:04:56.119Z,8.98
2019-04-22T08:07:15.729Z,7.95
2019-04-22T08:09:55.608Z,8.20
2019-04-22T08:12:39.219Z,8.35
2019-04-22T08:15:06.280Z,8.38
2019-04-22T08:17:57.805Z,7.60
2019-04-22T08:20:19.254Z,8.58
2019-04-22T08:22:51.779Z,7.67
2019-04-22T08:25:18.019Z,7.92
2019-04-22T08:27:53.384Z,7.90
2019-04-22T08:30:29.034Z,8.38
2019-04-22T08:33:04.083Z,8.50
2019-04-22T08:35:49.021Z,8.75
2019-04-22T08:37:57.569Z,8.63
2019-04-22T08:43:36.472Z,8.38
2019-04-22T08:46:25.238Z,8.68
2019-04-22T08:52:02.455Z,9.00
2019-04-22T08:57:46.987Z,7.92
2019-04-22T09:00:02.383Z,7.95
2019-04-22T09:02:38.690Z,7.87
2019-04-22T09:05:11.937Z,8.00
2019-04-22T09:07:45.018Z,8.30
2019-04-22T09:10:11.430Z,8.88
2019-04-22T09:15:23.130Z,8.55
2019-04-22T09:17:55.878Z,8.65
2019-04-22T09:20:26.793Z,8.18
2019-04-22T09:23:04.242Z,7.85
2019-04-22T09:25:29.992Z,8.53
2019-04-22T09:28:04.465Z,8.43
2019-04-22T09:30:40.080Z,8.28
2019-04-22T09:33:14.206Z,8.98
2019-04-22T09:35:45.014Z,8.60
2019-04-22T09:38:25.494Z,8.95
2019-04-22T09:40:47.036Z,8.48
2019-04-22T09:43:24.513Z,8.38
2019-04-22T09:45:53.249Z,8.35
2019-04-22T09:48:30.137Z,8.70
2019-04-22T09:51:00.337Z,8.58
2019-04-22T09:53:39.295Z,8.60
2019-04-22T09:59:02.610Z,8.90
2019-04-22T10:04:10.010Z,8.83
2019-04-22T10:09:59.397Z,8.25
2019-04-22T10:12:29.980Z,9.03
2019-04-22T10:14:55.825Z,8.78
2019-04-22T10:17:26.072Z,8.58
2019-04-22T10:20:04.070Z,9.60
2019-04-22T10:22:32.119Z,9.20
2019-04-22T10:25:08.248Z,9.00
2019-04-22T10:27:38.365Z,9.03
2019-04-22T10:30:04.363Z,8.88
2019-04-22T10:33:03.068Z,8.45
2019-04-22T10:35:17.237Z,9.83
2019-04-22T10:37:46.096Z,8.70
2019-04-22T10:40:23.645Z,8.90
2019-04-22T10:42:54.524Z,9.78
2019-04-22T10:45:26.064Z,9.53
2019-04-22T10:47:58.373Z,9.45
2019-04-22T10:50:41.070Z,9.28
2019-04-22T10:53:13.305Z,9.68
2019-04-22T10:55:47.136Z,9.45
2019-04-22T10:58:18.016Z,9.48
2019-04-22T11:01:09.608Z,8.90
2019-04-22T11:03:41.511Z,9.40
2019-04-22T11:06:12.474Z,9.03
2019-04-22T11:08:50.462Z,9.80
2019-04-22T11:11:30.216Z,9.18
2019-04-22T11:13:47.676Z,9.50
2019-04-22T11:16:19.394Z,9.63
2019-04-22T11:18:53.564Z,10.28
2019-04-22T11:21:25.400Z,9.95
2019-04-22T11:23:56.567Z,9.38
2019-04-22T11:26:28.247Z,9.50
2019-04-22T11:28:59.369Z,10.25
2019-04-22T11:31:32.406Z,9.83
2019-04-22T11:34:06.150Z,10.08
2019-04-22T11:36:37.089Z,10.23
2019-04-22T11:39:11.093Z,10.40
2019-04-22T11:41:42.071Z,9.63
2019-04-22T11:44:13.104Z,9.38
2019-04-22T11:46:45.448Z,9.90
2019-04-22T11:49:16.229Z,9.85
2019-04-22T11:51:47.804Z,9.73
2019-04-22T11:54:19.003Z,9.50
2019-04-22T11:56:50.119Z,9.28
2019-04-22T11:59:20.987Z,10.03
2019-04-22T12:01:52.963Z,9.38
2019-04-22T12:04:25.552Z,8.68
2019-04-22T12:06:57.645Z,9.05
2019-04-22T12:09:29.920Z,9.68
2019-04-22T12:12:00.893Z,9.65
2019-04-22T12:14:31.924Z,9.38
2019-04-22T12:17:03.604Z,10.20
2019-04-22T12:19:35.205Z,9.03
2019-04-22T12:22:07.142Z,9.23
2019-04-22T12:24:40.445Z,9.63
2019-04-22T12:27:11.022Z,9.18
2019-04-22T12:29:42.812Z,8.80
2019-04-22T12:32:13.762Z,9.78
2019-04-22T12:34:44.701Z,8.93
2019-04-22T12:37:26.069Z,9.13
2019-04-22T12:39:47.798Z,9.28
2019-04-22T12:42:19.798Z,10.05
2019-04-22T12:44:51.252Z,8.78
2019-04-22T12:47:22.309Z,9.20
2019-04-22T12:49:59.847Z,9.75
2019-04-22T12:52:33.965Z,9.98
2019-04-22T12:54:57.643Z,9.68
2019-04-22T12:57:28.458Z,9.83
2019-04-22T12:59:59.678Z,9.90
2019-04-22T13:02:31.289Z,9.50
2019-04-22T13:05:03.788Z,9.45
2019-04-22T13:07:37.914Z,10.32
2019-04-22T13:10:10.129Z,9.55
2019-04-22T13:12:42.621Z,10.28
2019-04-22T13:15:16.014Z,10.08
2019-04-22T13:17:59.484Z,10.20
2019-04-22T13:20:20.654Z,10.28
2019-04-22T13:22:52.656Z,10.08
2019-04-22T13:25:26.991Z,10.25
2019-04-22T13:27:57.510Z,10.13
2019-04-22T13:30:48.653Z,10.90
2019-04-22T13:33:20.890Z,10.25
2019-04-22T13:35:52.190Z,10.00
2019-04-22T13:38:23.087Z,9.85
2019-04-22T13:41:07.103Z,9.55
2019-04-22T13:43:27.069Z,9.40
2019-04-22T13:45:58.410Z,9.48
2019-04-22T13:48:46.913Z,10.15
2019-04-22T13:51:30.163Z,9.58
2019-04-22T13:54:30.173Z,9.70
2019-04-22T13:56:23.813Z,9.75
2019-04-22T13:58:54.100Z,9.88
2019-04-22T14:01:16.465Z,9.58
2019-04-22T14:04:02.564Z,10.20
2019-04-22T14:06:34.718Z,9.75
2019-04-22T14:09:07.465Z,10.23
2019-04-22T14:11:47.654Z,9.75
2019-04-22T14:14:10.978Z,10.00
2019-04-22T14:16:42.830Z,9.90
2019-04-22T14:19:14.029Z,10.65
2019-04-22T14:21:47.395Z,10.15
2019-04-22T14:24:19.614Z,10.35
2019-04-22T14:26:58.833Z,10.03
2019-04-22T14:29:23.909Z,10.10
2019-04-22T14:32:05.249Z,10.70
2019-04-22T14:34:28.388Z,10.75
2019-04-22T14:36:59.408Z,10.60
2019-04-22T14:39:30.481Z,10.35
2019-04-22T14:42:25.469Z,10.08
2019-04-22T14:47:34.836Z,10.50
2019-04-22T14:50:02.766Z,9.93
2019-04-22T14:52:33.536Z,10.28
2019-04-22T14:54:54.272Z,9.90
2019-04-22T14:57:15.136Z,10.03
2019-04-22T14:59:46.179Z,10.38
2019-04-22T15:02:19.627Z,9.98
2019-04-22T15:04:51.937Z,9.63
2019-04-22T15:07:23.243Z,10.03
2019-04-22T15:09:55.337Z,9.83
2019-04-22T15:12:34.508Z,9.95
2019-04-22T15:15:01.630Z,10.60
2019-04-22T15:17:53.009Z,9.40
2019-04-22T15:20:25.823Z,9.55
2019-04-22T15:22:56.773Z,9.75
2019-04-22T15:25:28.307Z,10.13
2019-04-22T15:27:59.487Z,9.70
2019-04-22T15:30:30.464Z,9.53
2019-04-22T15:33:01.329Z,9.23
2019-04-22T15:35:33.300Z,9.78
2019-04-22T15:38:06.823Z,10.10
2019-04-22T15:40:38.596Z,10.05
2019-04-22T15:43:31.684Z,9.98
2019-04-22T15:46:03.848Z,9.80
2019-04-22T15:48:35.679Z,9.90
2019-04-22T15:51:06.790Z,9.95
2019-04-22T15:53:51.799Z,10.32
2019-04-22T15:56:22.951Z,10.68
2019-04-22T15:58:55.509Z,10.30
2019-04-22T16:01:31.588Z,10.45
2019-04-22T16:03:59.011Z,10.50
2019-04-22T16:06:30.180Z,10.90
2019-04-22T16:09:02.710Z,11.53
2019-04-22T16:11:33.911Z,11.33
2019-04-22T16:14:08.801Z,11.05
2019-04-22T16:16:40.675Z,11.83
2019-04-22T16:19:12.186Z,12.43
2019-04-22T16:21:51.762Z,12.82
2019-04-22T16:24:34.061Z,12.25
2019-04-22T16:27:09.636Z,13.38
2019-04-22T16:29:41.225Z,12.40
2019-04-22T16:32:13.534Z,12.85
2019-04-22T16:34:45.704Z,13.85
2019-04-22T16:37:16.782Z,15.35
2019-04-22T16:39:50.301Z,15.38
2019-04-22T16:42:30.780Z,16.30
2019-04-22T16:44:53.481Z,15.28
2019-04-22T16:47:25.661Z,13.28
2019-04-22T16:50:18.074Z,13.28
2019-04-22T16:52:50.117Z,13.80
2019-04-22T17:11:15.975Z,15.50
2019-04-22T17:13:48.152Z,15.43
2019-04-22T17:16:20.213Z,13.83
2019-04-22T17:18:52.190Z,14.03
2019-04-22T17:21:23.598Z,13.28
2019-04-22T17:23:55.829Z,14.87
2019-04-22T17:26:28.383Z,14.15
2019-04-22T17:29:02.503Z,15.48
2019-04-22T17:31:40.199Z,15.63
2019-04-22T17:34:09.595Z,16.37
2019-04-22T17:36:42.707Z,14.70
2019-04-22T17:39:27.008Z,14.90
2019-04-22T17:42:05.048Z,16.55
2019-04-22T17:44:45.531Z,15.70
2019-04-22T17:47:05.195Z,17.45
2019-04-22T17:49:53.714Z,18.70
2019-04-22T17:55:04.638Z,37.35
2019-04-22T17:57:23.961Z,41.02
2019-04-22T17:59:55.185Z,16.48
2019-04-22T18:02:26.697Z,17.98
2019-04-22T18:04:53.326Z,17.92
2019-04-22T18:07:41.393Z,18.65
2019-04-22T18:12:42.335Z,15.43
2019-04-22T18:15:16.245Z,13.45
2019-04-22T18:17:51.568Z,12.23
2019-04-22T18:20:17.919Z,11.18
2019-04-22T18:22:41.819Z,11.83
2019-04-22T18:25:17.663Z,11.95
2019-04-22T18:28:01.608Z,11.85
2019-04-22T18:30:25.470Z,11.50
2019-04-22T18:33:03.123Z,11.93
2019-04-22T18:35:33.937Z,12.33
2019-04-22T18:38:18.244Z,11.80
2019-04-22T18:40:41.579Z,12.33
2019-04-22T18:43:17.356Z,11.50
2019-04-22T18:45:58.623Z,11.18
2019-04-22T18:48:08.493Z,11.35
2019-04-22T18:51:17.268Z,11.95
2019-04-22T18:53:44.708Z,11.25
2019-04-22T18:56:16.370Z,12.37
2019-04-22T18:58:40.629Z,11.78
2019-04-22T19:00:59.822Z,12.05
2019-04-22T19:03:36.458Z,12.37
2019-04-22T19:06:35.468Z,13.00
2019-04-22T19:08:57.972Z,15.40
2019-04-22T19:11:26.730Z,20.20
2019-04-22T19:16:36.978Z,20.00
2019-04-22T19:19:25.144Z,19.55
2019-04-22T19:21:38.106Z,20.17
2019-04-22T19:24:09.540Z,20.02
2019-04-22T19:26:50.009Z,20.12
2019-04-22T19:29:17.140Z,17.92
2019-04-22T19:31:47.251Z,15.20
2019-04-22T19:34:20.885Z,14.25
2019-04-22T19:36:51.630Z,14.38
2019-04-22T19:39:19.255Z,12.58
2019-04-22T19:42:08.151Z,13.20
2019-04-22T19:44:36.248Z,12.15
2019-04-22T19:47:14.459Z,12.63
2019-04-22T19:49:40.849Z,12.23
2019-04-22T19:52:11.275Z,11.45
2019-04-22T19:54:39.177Z,12.33
2019-04-22T19:57:05.834Z,11.70
2019-04-22T19:59:47.839Z,10.23
2019-04-22T20:02:20.166Z,10.32
2019-04-22T20:05:02.766Z,10.38
2019-04-22T20:07:27.773Z,10.75
2019-04-22T20:10:07.997Z,10.65
2019-04-22T20:12:36.673Z,11.25
2019-04-22T20:15:05.528Z,11.03
2019-04-22T20:17:56.428Z,12.10
2019-04-22T20:20:17.542Z,10.98
2019-04-22T20:22:41.673Z,11.73
2019-04-22T20:25:05.445Z,11.35
2019-04-22T20:27:47.590Z,10.93
2019-04-22T20:30:23.950Z,11.38
2019-04-22T20:32:51.375Z,11.48
2019-04-22T20:35:29.079Z,11.68
2019-04-22T20:37:56.823Z,12.78
2019-04-22T20:40:31.283Z,12.82
2019-04-22T20:43:10.412Z,13.22
2019-04-22T20:45:34.849Z,13.08
2019-04-22T20:47:58.750Z,12.50
2019-04-22T20:50:41.706Z,12.13
2019-04-22T20:53:18.411Z,12.25
2019-04-22T20:55:41.954Z,12.98
2019-04-22T20:58:15.333Z,12.53
2019-04-22T21:00:40.661Z,12.28
2019-04-22T21:03:13.719Z,12.37
2019-04-22T21:05:44.494Z,11.75
2019-04-22T21:08:24.351Z,13.32
2019-04-22T21:10:50.982Z,12.33
2019-04-22T21:13:21.903Z,13.35
2019-04-22T21:16:04.142Z,11.70
2019-04-22T21:18:31.953Z,11.80
2019-04-22T21:21:07.076Z,10.50
2019-04-22T21:23:34.993Z,10.78
2019-04-22T21:26:13.955Z,10.43
2019-04-22T21:28:44.599Z,10.10
2019-04-22T21:31:26.689Z,10.35
2019-04-22T21:33:51.960Z,10.03
2019-04-22T21:36:30.212Z,10.80
2019-04-22T21:38:54.576Z,10.20
2019-04-22T21:41:24.890Z,9.58
2019-04-22T21:44:00.967Z,10.18
2019-04-22T21:46:35.659Z,10.85
2019-04-22T21:49:06.504Z,9.48
2019-04-22T21:51:43.546Z,8.90
2019-04-22T21:54:15.510Z,8.10
2019-04-22T21:57:07.544Z,8.33
2019-04-22T21:59:30.148Z,9.80
2019-04-22T22:02:25.205Z,12.23
2019-04-22T22:04:48.954Z,18.20
2019-04-22T22:07:11.945Z,16.42
2019-04-22T22:09:54.459Z,11.45
2019-04-22T22:12:33.438Z,9.48
2019-04-22T22:15:05.460Z,9.38
2019-04-22T22:17:32.620Z,9.10
2019-04-22T22:20:03.481Z,8.95
2019-04-22T22:25:14.432Z,9.35
2019-04-22T22:27:40.589Z,8.68
2019-04-22T22:30:39.525Z,8.78
2019-04-22T22:32:51.504Z,8.13
2019-04-22T22:35:20.569Z,9.00
2019-04-22T22:37:51.753Z,9.13
2019-04-22T22:40:11.995Z,9.70
2019-04-22T22:42:43.719Z,10.18
2019-04-22T22:45:19.963Z,9.93
2019-04-22T22:48:09.655Z,10.48
2019-04-22T22:50:30.981Z,11.03
2019-04-22T22:53:21.216Z,11.20
2019-04-22T22:55:41.011Z,11.30
2019-04-22T22:58:17.693Z,11.12
2019-04-22T23:00:39.420Z,10.25
2019-04-22T23:03:40.602Z,10.82
2019-04-22T23:05:50.531Z,9.73
2019-04-22T23:08:25.864Z,9.78
2019-04-22T23:11:00.344Z,9.78
2019-04-22T23:15:50.179Z,10.10
2019-04-22T23:18:10.130Z,10.25
2019-04-22T23:20:47.271Z,9.90
2019-04-22T23:23:33.281Z,9.13
2019-04-22T23:29:03.676Z,9.98
2019-04-22T23:31:36.874Z,10.72
2019-04-22T23:34:22.046Z,10.08
2019-04-22T23:37:18.807Z,10.30
2019-04-22T23:40:04.130Z,10.65
2019-04-22T23:45:34.902Z,10.03
2019-04-22T23:51:03.373Z,10.85
